Latest Coastal Weather Observations for Green Cape

IDN60701

Issued at 3:12 pm EDT Monday 22 December 2014 (issued every 10 minutes, with the page automatically refreshed every 10 minutes)

About coastal observations | Map of coastal stations | Coastal observations for NSW | Marine services | Other Formats
Station Details ID: 069137 Name: GREEN CAPE AWS Lat: -37.26 Lon: 150.05 Height: 19.4 m
Data from the previous 72 hours. | See also: Recent months at Green Cape
Date/Time
EDT
Temp

°C
Wind Pressure Rain
since 9am
mm
Weather Cloud Vis
km
Sea
Height
m
Swell
Dir
 
Speed
knots
Gust
knots
hPa Trend Height
m
Period
s
Dir
22/03:00pm 22.1 NNE 18 22 1013.3 - 0.0 - - - - - - -
22/02:30pm 21.8 NNE 17 20 1013.3 - 0.0 - - - - - - -
22/02:00pm 23.2 NNE 16 18 1013.4 - 0.0 - - - - - - -
22/01:30pm 22.6 NNE 16 19 1014.1 - 0.0 - - - - - - -
22/01:00pm 22.7 NNE 18 20 1014.4 - 0.0 - - - - - - -
22/12:30pm 22.7 NNE 17 20 1014.6 - 0.0 - - - - - - -
22/12:00pm 21.8 NNE 18 20 1014.6 - 0.0 - - - - - - -
22/11:30am 21.7 NNE 17 19 1014.7 - 0.0 - - - - - - -
22/11:00am 21.3 N 16 18 1014.6 - 0.0 - - - - - - -
22/10:30am 21.2 N 13 16 1014.8 - 0.0 - - - - - - -
22/10:00am 20.8 N 11 12 1015.1 - 0.0 - - - - - - -
22/09:30am 20.6 N 12 13 1014.9 - 0.0 - - - - - - -
22/09:00am 20.3 N 10 11 1015.1 - 0.0 - - - - - - -
22/08:30am 19.6 N 10 11 1015.0 - 0.0 - - - - - - -
22/08:00am 19.5 N 9 10 1015.0 - 0.0 - - - - - - -
22/07:30am 19.3 N 9 10 1014.7 - 0.0 - - - - - - -
22/07:00am 18.8 N 6 8 1014.6 - 0.0 - - - - - - -
22/06:30am 18.8 N 4 7 1014.7 - 0.0 - - - - - - -
22/06:00am 18.3 N 11 12 1014.1 - 0.0 - - - - - - -
22/05:30am 18.5 N 7 9 1014.2 - 0.0 - - - - - - -
22/05:00am 18.9 N 5 6 1014.4 - 0.0 - - - - - - -
22/04:30am 18.4 N 9 11 1014.3 - 0.0 - - - - - - -
22/04:00am 18.1 N 7 8 1014.2 - 0.0 - - - - - - -
22/03:30am 18.0 N 9 10 1014.4 - 0.0 - - - - - - -
22/03:00am 18.2 N 9 10 1014.6 - 0.0 - - - - - - -
22/02:30am 18.2 N 7 8 1014.8 - 0.0 - - - - - - -
22/02:00am 18.3 N 8 11 1014.9 - 0.0 - - - - - - -
22/01:30am 18.4 N 13 16 1014.6 - 0.0 - - - - - - -
22/01:00am 18.6 N 14 16 1014.4 - 0.0 - - - - - - -
22/12:30am 18.6 N 13 15 1014.8 - 0.0 - - - - - - -
22/12:00am 18.7 N 13 15 1015.1 - 0.0 - - - - - - -
 
Date/Time
EDT
Temp

°C
Wind Pressure Rain
since 9am
mm
Weather Cloud Vis
km
Sea
Height
m
Swell
Dir
 
Speed
knots
Gust
knots
hPa Trend Height
m
Period
s
Dir
21/11:30pm 18.8 N 12 14 1015.2 - 0.0 - - - - - - -
21/11:00pm 18.7 N 11 13 1015.5 - 0.0 - - - - - - -
21/10:30pm 18.6 N 11 12 1015.6 - 0.0 - - - - - - -
21/10:00pm 18.7 N 10 11 1015.6 - 0.0 - - - - - - -
21/09:30pm 18.9 N 10 11 1015.7 - 0.0 - - - - - - -
21/09:00pm 19.2 N 10 12 1015.6 - 0.0 - - - - - - -
21/08:30pm 19.3 N 11 12 1015.6 - 0.0 - - - - - - -
21/08:00pm 19.6 N 11 12 1015.3 - 0.0 - - - - - - -
21/07:30pm 20.0 N 13 14 1015.0 - 0.0 - - - - - - -
21/07:00pm 20.2 N 12 13 1014.7 - 0.0 - - - - - - -
21/06:30pm 20.9 N 11 12 1014.7 - 0.0 - - - - - - -
21/06:00pm 21.1 N 9 10 1014.9 - 0.0 - - - - - - -
21/05:30pm 22.2 N 10 11 1014.8 - 0.0 - - - - - - -
21/05:00pm 21.9 N 11 12 1015.0 - 0.0 - - - - - - -
21/04:30pm 22.9 N 10 11 1015.1 - 0.0 - - - - - - -
21/04:00pm 23.0 N 9 10 1015.5 - 0.0 - - - - - - -
21/03:30pm 22.1 N 11 13 1015.6 - 0.0 - - - - - - -
21/03:00pm 22.9 N 10 12 1015.8 - 0.0 - - - - - - -
21/02:30pm 23.0 NNE 12 14 1015.6 - 0.0 - - - - - - -
21/02:00pm 22.8 NNE 13 15 1015.6 - 0.0 - - - - - - -
21/01:30pm 22.8 NNE 14 16 1015.9 - 0.0 - - - - - - -
21/01:00pm 22.3 NNE 16 18 1015.8 - 0.0 - - - - - - -
21/12:30pm 22.5 NNE 14 16 1016.6 - 0.0 - - - - - - -
21/12:00pm 23.1 NNE 9 13 1016.5 - 0.0 - - - - - - -
21/11:30am 22.7 N 7 8 1016.8 - 0.0 - - - - - - -
21/11:00am 20.9 N 9 10 1016.8 - 0.0 - - - - - - -
21/10:30am 21.3 N 9 11 1017.0 - 0.0 - - - - - - -
21/10:00am 21.1 NNE 6 8 1017.2 - 0.0 - - - - - - -
21/09:30am 20.7 N 7 8 1017.2 - 0.0 - - - - - - -
21/09:00am 20.2 N 6 7 1017.3 - 0.0 - - - - - - -
21/08:30am 19.7 N 7 8 1017.1 - 0.0 - - - - - - -
21/08:00am 18.7 N 5 6 1017.1 - 0.0 - - - - - - -
21/07:30am 17.7 N 4 5 1016.8 - 0.0 - - - - - - -
21/07:00am 16.5 N 3 4 1016.7 - 0.0 - - - - - - -
21/06:30am 14.9 CALM 0 1 1016.7 - 0.0 - - - - - - -
21/06:00am 14.6 CALM 0 0 1016.4 - 0.0 - - - - - - -
21/05:30am 14.4 NW 2 3 1016.4 - 0.0 - - - - - - -
21/05:00am 14.6 NNW 2 3 1016.4 - 0.0 - - - - - - -
21/04:30am 14.2 WNW 3 4 1016.5 - 0.0 - - - - - - -
21/04:00am 14.6 WNW 3 4 1016.6 - 0.0 - - - - - - -
21/03:30am 15.2 NW 3 4 1016.8 - 0.0 - - - - - - -
21/03:00am 15.7 NNW 4 5 1016.9 - 0.0 - - - - - - -
21/02:30am 15.6 NNW 5 5 1017.1 - 0.0 - - - - - - -
21/02:00am 15.7 NNW 3 3 1017.4 - 0.0 - - - - - - -
21/01:30am 15.8 NNW 3 3 1017.6 - 0.0 - - - - - - -
21/01:00am 16.4 N 3 5 1017.8 - 0.0 - - - - - - -
21/12:30am 16.7 N 6 7 1018.0 - 0.0 - - - - - - -
21/12:00am 16.6 N 5 6 1018.2 - 0.0 - - - - - - -
 
Date/Time
EDT
Temp

°C
Wind Pressure Rain
since 9am
mm
Weather Cloud Vis
km
Sea
Height
m
Swell
Dir
 
Speed
knots
Gust
knots
hPa Trend Height
m
Period
s
Dir
20/11:30pm 17.6 N 8 9 1018.4 - 0.0 - - - - - - -
20/11:00pm 17.6 NNE 8 10 1018.4 - 0.0 - - - - - - -
20/10:30pm 17.6 NNE 8 10 1018.5 - 0.0 - - - - - - -
20/10:00pm 17.4 NNE 7 8 1018.6 - 0.0 - - - - - - -
20/09:30pm 17.5 NNE 7 8 1018.4 - 0.0 - - - - - - -
20/09:00pm 17.5 N 6 7 1018.2 - 0.0 - - - - - - -
20/08:30pm 17.7 N 6 8 1017.9 - 0.0 - - - - - - -
20/08:00pm 18.4 S 1 3 1017.8 - 0.0 - - - - - - -
20/07:30pm 19.0 SSE 5 6 1017.6 - 0.0 - - - - - - -
20/07:00pm 19.8 SSE 4 5 1017.3 - 0.0 - - - - - - -
20/06:30pm 19.9 SSE 6 7 1017.1 - 0.0 - - - - - - -
20/06:00pm 19.8 S 8 10 1016.9 - 0.0 - - - - - - -
20/05:30pm 19.8 SSE 10 12 1016.8 - 0.0 - - - - - - -
20/05:00pm 20.3 SSE 8 11 1016.8 - 0.0 - - - - - - -
20/04:30pm 20.0 SSE 12 14 1017.1 - 0.0 - - - - - - -
20/04:00pm 20.4 SE 9 11 1017.3 - 0.0 - - - - - - -
20/03:30pm 20.9 SSE 9 11 1017.4 - 0.0 - - - - - - -
20/03:00pm 21.0 SSE 11 14 1017.4 - 0.0 - - - - - - -
20/02:30pm 21.0 SSE 11 13 1017.3 - 0.0 - - - - - - -
20/02:00pm 20.8 SSE 12 14 1017.3 - 0.0 - - - - - - -
20/01:30pm 20.9 SSE 14 15 1017.2 - 0.0 - - - - - - -
20/01:00pm 21.0 SSE 13 15 1017.4 - 0.0 - - - - - - -
20/12:30pm 21.4 SSE 9 11 1017.6 - 0.0 - - - - - - -
20/12:00pm 22.6 SSE 5 5 1017.6 - 0.0 - - - - - - -
20/11:30am 22.6 SSE 4 5 1017.6 - 0.0 - - - - - - -
20/11:00am 20.9 SW 6 8 1017.6 - 0.0 - - - - - - -
20/10:30am 18.8 WSW 8 10 1017.6 - 0.0 - - - - - - -
20/10:00am 18.3 WSW 9 10 1017.7 - 0.0 - - - - - - -
20/09:30am 17.7 W 11 14 1017.8 - 0.0 - - - - - - -
20/09:00am 16.8 W 14 17 1017.8 - 0.0 - - - - - - -
20/08:30am 16.0 WNW 10 13 1017.8 - 0.0 - - - - - - -
20/08:00am 15.2 W 10 13 1017.7 - 0.0 - - - - - - -
20/07:30am 14.5 W 13 15 1017.7 - 0.0 - - - - - - -
20/07:00am 13.7 W 8 9 1017.6 - 0.0 - - - - - - -
20/06:30am 13.6 W 7 9 1017.3 - 0.0 - - - - - - -
20/06:00am 12.7 WNW 6 7 1017.1 - 0.0 - - - - - - -
20/05:30am 12.2 WNW 4 7 1017.1 - 0.0 - - - - - - -
20/05:00am 12.6 W 6 8 1017.1 - 0.0 - - - - - - -
20/04:30am 12.9 WNW 9 10 1017.0 - 0.0 - - - - - - -
20/04:00am 12.9 W 8 9 1016.9 - 0.0 - - - - - - -
20/03:30am 12.9 W 8 9 1017.2 - 0.0 - - - - - - -
20/03:00am 13.5 WNW 5 7 1017.3 - 0.0 - - - - - - -
20/02:30am 13.2 WNW 6 7 1017.4 - 0.0 - - - - - - -
20/02:00am 13.6 WNW 7 9 1017.7 - 0.0 - - - - - - -
20/01:30am 13.6 WNW 5 7 1018.0 - 0.0 - - - - - - -
20/01:00am 14.1 W 8 10 1018.2 - 0.0 - - - - - - -
20/12:30am 14.2 W 8 10 1018.3 - 0.0 - - - - - - -
20/12:00am 14.2 W 10 12 1018.4 - 0.0 - - - - - - -
 
Date/Time
EDT
Temp

°C
Wind Pressure Rain
since 9am
mm
Weather Cloud Vis
km
Sea
Height
m
Swell
Dir
 
Speed
knots
Gust
knots
hPa Trend Height
m
Period
s
Dir
19/11:30pm 14.5 WSW 12 14 1018.3 - 0.0 - - - - - - -
19/11:00pm 14.8 WSW 12 14 1018.3 - 0.0 - - - - - - -
19/10:30pm 15.0 WSW 11 14 1018.2 - 0.0 - - - - - - -
19/10:00pm 15.4 WSW 12 14 1018.0 - 0.0 - - - - - - -
19/09:30pm 15.5 SW 15 18 1017.7 - 0.0 - - - - - - -
19/09:00pm 15.6 SSW 18 21 1017.3 - 0.0 - - - - - - -
19/08:30pm 15.6 SSW 20 23 1016.9 - 0.0 - - - - - - -
19/08:00pm 15.8 SSW 19 22 1016.7 - 0.0 - - - - - - -
19/07:30pm 16.2 SSW 22 26 1016.2 - 0.0 - - - - - - -
19/07:00pm 16.2 SSW 22 25 1015.7 - 0.0 - - - - - - -
19/06:30pm 16.3 SSW 22 25 1015.3 - 0.0 - - - - - - -
19/06:00pm 16.6 SSW 21 25 1014.8 - 0.0 - - - - - - -
19/05:30pm 16.9 SSW 21 24 1014.6 - 0.0 - - - - - - -
19/05:00pm 17.6 SSW 20 24 1014.5 - 0.0 - - - - - - -
19/04:30pm 16.8 SSW 20 24 1014.3 - 0.0 - - - - - - -
19/04:00pm 17.5 SSW 18 22 1014.3 - 0.0 - - - - - - -
19/03:30pm 18.0 SW 19 22 1014.2 - 0.0 - - - - - - -

Other Formats:

Comma delimited format used in spreadsheet applications
http://www.bom.gov.au/fwo/IDN60701/IDN60701.94934.axf

JavaScript Object Notation format (JSON) in row-major order
http://www.bom.gov.au/fwo/IDN60701/IDN60701.94934.json